KLM568 EHAM-LPPR
Flight info
| Callsign | KLM568 |
|---|---|
| Flight time | 2h 19m |
| Altitude | 36000 |
| Route | KUDA2Z WOODY N872 MEDIL KOVIN NIDUV KIHVI UN872 ERIGA UZ218 FUJTI ATLEN INSID T326 ASPOR ASPO3T |
| Aircraft | B73M/M-SDE2E3FGHIRWXY/LB1 |
Departure
| Time | 2026-05-07 10:26 |
|---|---|
| Airport | Amsterdam Airport Schiphol (EHAM) |
Arrival
| Time | 2026-05-07 12:45 |
|---|---|
| Airport | Francisco de Sá Carneiro Airport (LPPR) |
| Time | Latitude | Longitude | Altitude | Speed | Heading |
|---|---|---|---|---|---|
| 2026-05-07 09:59 | 52.31226 | 4.76844 | 7 ft | 0 kts | 303° |
| 2026-05-07 10:08 | 52.31215 | 4.76873 | 7 ft | 3 kts | 303° |
| 2026-05-07 10:08 | 52.31205 | 4.76895 | 8 ft | 2 kts | 308° |
| 2026-05-07 10:09 | 52.31197 | 4.76908 | 8 ft | 1 kts | 325° |
| 2026-05-07 10:09 | 52.31189 | 4.76916 | 8 ft | 1 kts | 342° |
| 2026-05-07 10:09 | 52.31181 | 4.76919 | 8 ft | 1 kts | 358° |
| 2026-05-07 10:09 | 52.31173 | 4.76918 | 8 ft | 1 kts | 13° |
| 2026-05-07 10:10 | 52.31165 | 4.76914 | 8 ft | 0 kts | 28° |
| 2026-05-07 10:10 | 52.31166 | 4.76914 | 8 ft | 0 kts | 28° |
| 2026-05-07 10:12 | 52.31199 | 4.76970 | 8 ft | 18 kts | 54° |
| 2026-05-07 10:13 | 52.31224 | 4.77018 | 7 ft | 4 kts | 43° |
| 2026-05-07 10:13 | 52.31231 | 4.77027 | 7 ft | 0 kts | 34° |
| 2026-05-07 10:13 | 52.31242 | 4.77038 | 7 ft | 4 kts | 34° |
| 2026-05-07 10:13 | 52.31283 | 4.77084 | 7 ft | 9 kts | 34° |
| 2026-05-07 10:14 | 52.31327 | 4.77132 | 7 ft | 9 kts | 33° |
| 2026-05-07 10:14 | 52.31384 | 4.77185 | 6 ft | 10 kts | 15° |
| 2026-05-07 10:14 | 52.31470 | 4.77196 | 3 ft | 14 kts | 4° |
| 2026-05-07 10:15 | 52.31564 | 4.77160 | 0 ft | 15 kts | 298° |
| 2026-05-07 10:15 | 52.31568 | 4.76984 | 0 ft | 15 kts | 269° |
| 2026-05-07 10:15 | 52.31560 | 4.76800 | -2 ft | 16 kts | 267° |
| 2026-05-07 10:15 | 52.31553 | 4.76610 | -2 ft | 16 kts | 265° |
| 2026-05-07 10:16 | 52.31547 | 4.76424 | -2 ft | 16 kts | 267° |
| 2026-05-07 10:16 | 52.31542 | 4.76236 | -2 ft | 16 kts | 266° |
| 2026-05-07 10:16 | 52.31533 | 4.76052 | -2 ft | 15 kts | 266° |
| 2026-05-07 10:16 | 52.31528 | 4.75879 | -1 ft | 14 kts | 267° |
| 2026-05-07 10:17 | 52.31522 | 4.75721 | 0 ft | 12 kts | 266° |
| 2026-05-07 10:17 | 52.31517 | 4.75586 | 1 ft | 11 kts | 267° |
| 2026-05-07 10:17 | 52.31513 | 4.75447 | 1 ft | 13 kts | 268° |
| 2026-05-07 10:17 | 52.31508 | 4.75270 | -1 ft | 17 kts | 268° |
| 2026-05-07 10:18 | 52.31500 | 4.75059 | -3 ft | 20 kts | 267° |
| 2026-05-07 10:18 | 52.31492 | 4.74820 | -4 ft | 21 kts | 266° |
| 2026-05-07 10:18 | 52.31485 | 4.74647 | -7 ft | 15 kts | 267° |
| 2026-05-07 10:18 | 52.31480 | 4.74465 | -7 ft | 16 kts | 267° |
| 2026-05-07 10:19 | 52.31473 | 4.74300 | -6 ft | 7 kts | 267° |
| 2026-05-07 10:19 | 52.31468 | 4.74233 | -5 ft | 4 kts | 247° |
| 2026-05-07 10:19 | 52.31452 | 4.74191 | -4 ft | 4 kts | 231° |
| 2026-05-07 10:19 | 52.31419 | 4.74147 | -4 ft | 7 kts | 209° |
| 2026-05-07 10:20 | 52.31358 | 4.74133 | -4 ft | 10 kts | 182° |
| 2026-05-07 10:20 | 52.31277 | 4.74128 | -3 ft | 13 kts | 182° |
| 2026-05-07 10:20 | 52.31177 | 4.74119 | -4 ft | 14 kts | 184° |
| 2026-05-07 10:20 | 52.31075 | 4.74109 | -4 ft | 14 kts | 183° |
| 2026-05-07 10:21 | 52.30977 | 4.74099 | -6 ft | 14 kts | 184° |
| 2026-05-07 10:21 | 52.30876 | 4.74088 | -8 ft | 15 kts | 184° |
| 2026-05-07 10:21 | 52.30769 | 4.74079 | -10 ft | 15 kts | 182° |
| 2026-05-07 10:21 | 52.30664 | 4.74072 | -10 ft | 14 kts | 182° |
| 2026-05-07 10:22 | 52.30566 | 4.74059 | -11 ft | 13 kts | 185° |
| 2026-05-07 10:22 | 52.30475 | 4.74050 | -11 ft | 12 kts | 183° |
| 2026-05-07 10:22 | 52.30386 | 4.74038 | -11 ft | 12 kts | 192° |
| 2026-05-07 10:22 | 52.30314 | 4.73996 | -11 ft | 10 kts | 201° |
| 2026-05-07 10:23 | 52.30247 | 4.73942 | -12 ft | 10 kts | 214° |
| 2026-05-07 10:23 | 52.30195 | 4.73866 | -11 ft | 8 kts | 240° |
| 2026-05-07 10:23 | 52.30193 | 4.73789 | -10 ft | 5 kts | 292° |
| 2026-05-07 10:23 | 52.30211 | 4.73752 | -9 ft | 2 kts | 319° |
| 2026-05-07 10:24 | 52.30229 | 4.73738 | -9 ft | 3 kts | 2° |
| 2026-05-07 10:24 | 52.30233 | 4.73738 | -9 ft | 0 kts | 3° |
| 2026-05-07 10:25 | 52.30238 | 4.73739 | -9 ft | 6 kts | 3° |
| 2026-05-07 10:25 | 52.30553 | 4.73768 | -9 ft | 87 kts | 3° |
| 2026-05-07 10:25 | 52.31433 | 4.73852 | 0 ft | 161 kts | 4° |
| 2026-05-07 10:25 | 52.32677 | 4.73957 | 429 ft | 188 kts | 4° |
| 2026-05-07 10:26 | 52.33968 | 4.74416 | 1152 ft | 203 kts | 26° |
| 2026-05-07 10:26 | 52.35240 | 4.75268 | 2386 ft | 197 kts | 22° |
| 2026-05-07 10:26 | 52.36486 | 4.76118 | 3334 ft | 207 kts | 33° |
| 2026-05-07 10:26 | 52.37397 | 4.77889 | 4339 ft | 215 kts | 71° |
| 2026-05-07 10:27 | 52.37479 | 4.80232 | 5659 ft | 212 kts | 105° |
| 2026-05-07 10:27 | 52.37046 | 4.82476 | 6740 ft | 218 kts | 112° |
| 2026-05-07 10:27 | 52.36127 | 4.84404 | 7470 ft | 222 kts | 146° |
| 2026-05-07 10:27 | 52.34666 | 4.85224 | 7952 ft | 227 kts | 180° |
| 2026-05-07 10:28 | 52.33098 | 4.85032 | 8438 ft | 229 kts | 182° |
| 2026-05-07 10:28 | 52.31510 | 4.84943 | 8892 ft | 232 kts | 181° |
| 2026-05-07 10:28 | 52.29890 | 4.84889 | 9346 ft | 233 kts | 181° |
| 2026-05-07 10:28 | 52.28257 | 4.84848 | 9800 ft | 234 kts | 181° |
| 2026-05-07 10:29 | 52.26640 | 4.84812 | 10249 ft | 236 kts | 181° |
| 2026-05-07 10:29 | 52.24984 | 4.84775 | 10705 ft | 238 kts | 181° |
| 2026-05-07 10:29 | 52.23361 | 4.84603 | 11146 ft | 239 kts | 199° |
| 2026-05-07 10:30 | 52.20214 | 4.82787 | 12097 ft | 243 kts | 200° |
| 2026-05-07 10:30 | 52.18618 | 4.81853 | 12557 ft | 244 kts | 200° |
| 2026-05-07 10:30 | 52.17025 | 4.80916 | 13006 ft | 247 kts | 201° |
| 2026-05-07 10:30 | 52.15380 | 4.79947 | 13344 ft | 250 kts | 201° |
| 2026-05-07 10:31 | 52.13760 | 4.78993 | 13664 ft | 257 kts | 201° |
| 2026-05-07 10:31 | 52.11992 | 4.77950 | 14195 ft | 279 kts | 201° |
| 2026-05-07 10:31 | 52.10131 | 4.76855 | 14773 ft | 299 kts | 201° |
| 2026-05-07 10:31 | 52.08079 | 4.75651 | 15271 ft | 323 kts | 201° |
| 2026-05-07 10:32 | 52.05895 | 4.74370 | 15764 ft | 346 kts | 201° |
| 2026-05-07 10:32 | 52.03561 | 4.73002 | 16295 ft | 366 kts | 201° |
| 2026-05-07 10:32 | 52.02319 | 4.72274 | 16654 ft | 367 kts | 200° |
| 2026-05-07 10:32 | 51.99926 | 4.70876 | 17180 ft | 372 kts | 201° |
| 2026-05-07 10:33 | 51.97492 | 4.69454 | 17933 ft | 371 kts | 201° |
| 2026-05-07 10:33 | 51.95048 | 4.68027 | 18611 ft | 373 kts | 201° |
| 2026-05-07 10:33 | 51.92611 | 4.66606 | 19025 ft | 381 kts | 201° |
| 2026-05-07 10:33 | 51.90105 | 4.65147 | 19675 ft | 381 kts | 201° |
| 2026-05-07 10:34 | 51.87628 | 4.63706 | 20299 ft | 384 kts | 200° |
| 2026-05-07 10:34 | 51.85083 | 4.62228 | 20753 ft | 390 kts | 201° |
| 2026-05-07 10:34 | 51.82554 | 4.60761 | 21355 ft | 391 kts | 201° |
| 2026-05-07 10:34 | 51.79992 | 4.59277 | 21930 ft | 393 kts | 201° |
| 2026-05-07 10:35 | 51.77432 | 4.57796 | 22380 ft | 397 kts | 201° |
| 2026-05-07 10:35 | 51.74804 | 4.56276 | 22943 ft | 399 kts | 201° |
| 2026-05-07 10:35 | 51.72213 | 4.54781 | 23471 ft | 401 kts | 201° |
| 2026-05-07 10:35 | 51.69570 | 4.53256 | 23913 ft | 405 kts | 201° |
| 2026-05-07 10:36 | 51.66933 | 4.51737 | 24429 ft | 407 kts | 201° |
| 2026-05-07 10:36 | 51.64273 | 4.50208 | 24925 ft | 409 kts | 201° |
| 2026-05-07 10:36 | 51.61559 | 4.48648 | 25349 ft | 413 kts | 201° |
| 2026-05-07 10:36 | 51.58838 | 4.47088 | 25798 ft | 416 kts | 201° |
| 2026-05-07 10:37 | 51.56137 | 4.45539 | 26271 ft | 417 kts | 201° |
| 2026-05-07 10:37 | 51.53359 | 4.43949 | 26675 ft | 421 kts | 201° |
| 2026-05-07 10:37 | 51.51201 | 4.42715 | 27005 ft | 423 kts | 201° |
| 2026-05-07 10:37 | 51.48877 | 4.41387 | 27373 ft | 424 kts | 201° |
| 2026-05-07 10:38 | 51.46048 | 4.39774 | 27784 ft | 427 kts | 201° |
| 2026-05-07 10:38 | 51.43216 | 4.38161 | 28174 ft | 430 kts | 201° |
| 2026-05-07 10:38 | 51.40391 | 4.36516 | 28578 ft | 431 kts | 205° |
| 2026-05-07 10:38 | 51.37627 | 4.34413 | 28933 ft | 434 kts | 206° |
| 2026-05-07 10:39 | 51.34869 | 4.32320 | 29385 ft | 434 kts | 206° |
| 2026-05-07 10:39 | 51.32110 | 4.30226 | 29703 ft | 439 kts | 206° |
| 2026-05-07 10:39 | 51.29332 | 4.28259 | 29964 ft | 441 kts | 208° |
| 2026-05-07 10:39 | 51.26588 | 4.26076 | 30545 ft | 438 kts | 206° |
| 2026-05-07 10:40 | 51.23879 | 4.23995 | 31167 ft | 433 kts | 206° |
| 2026-05-07 10:40 | 51.21134 | 4.21904 | 31451 ft | 436 kts | 206° |
| 2026-05-07 10:40 | 51.18424 | 4.19850 | 31767 ft | 437 kts | 206° |
| 2026-05-07 10:40 | 51.15642 | 4.17911 | 32224 ft | 434 kts | 199° |
| 2026-05-07 10:41 | 51.12810 | 4.16372 | 32554 ft | 434 kts | 200° |
| 2026-05-07 10:41 | 51.09940 | 4.14792 | 32907 ft | 433 kts | 200° |
| 2026-05-07 10:41 | 51.07110 | 4.13239 | 33267 ft | 432 kts | 200° |
| 2026-05-07 10:41 | 51.04294 | 4.11697 | 33572 ft | 431 kts | 200° |
| 2026-05-07 10:42 | 51.01436 | 4.10133 | 33866 ft | 431 kts | 200° |
| 2026-05-07 10:42 | 50.98623 | 4.08597 | 34161 ft | 430 kts | 200° |
| 2026-05-07 10:42 | 50.95824 | 4.07071 | 34433 ft | 429 kts | 200° |
| 2026-05-07 10:42 | 50.93018 | 4.05542 | 34653 ft | 429 kts | 200° |
| 2026-05-07 10:43 | 50.90176 | 4.03995 | 34867 ft | 427 kts | 200° |
| 2026-05-07 10:43 | 50.87396 | 4.02457 | 34988 ft | 427 kts | 203° |
| 2026-05-07 10:43 | 50.84635 | 4.00660 | 35090 ft | 428 kts | 203° |
| 2026-05-07 10:43 | 50.81892 | 3.98900 | 35220 ft | 428 kts | 203° |
| 2026-05-07 10:44 | 50.79149 | 3.97142 | 35337 ft | 428 kts | 203° |
| 2026-05-07 10:44 | 50.76402 | 3.95385 | 35434 ft | 428 kts | 203° |
| 2026-05-07 10:44 | 50.70885 | 3.91862 | 35635 ft | 428 kts | 203° |
| 2026-05-07 10:45 | 50.65391 | 3.88364 | 35824 ft | 428 kts | 203° |
| 2026-05-07 10:45 | 50.59874 | 3.84859 | 36021 ft | 428 kts | 203° |
| 2026-05-07 10:46 | 50.54407 | 3.81242 | 36210 ft | 427 kts | 205° |
| 2026-05-07 10:46 | 50.48996 | 3.77548 | 36401 ft | 426 kts | 205° |
| 2026-05-07 10:47 | 50.43597 | 3.73872 | 36585 ft | 424 kts | 205° |
| 2026-05-07 10:47 | 50.38202 | 3.70207 | 36773 ft | 422 kts | 205° |
| 2026-05-07 10:48 | 50.32845 | 3.66576 | 36955 ft | 419 kts | 205° |
| 2026-05-07 10:48 | 50.27513 | 3.62974 | 37039 ft | 419 kts | 205° |
| 2026-05-07 10:49 | 50.22140 | 3.59351 | 37047 ft | 422 kts | 205° |
| 2026-05-07 10:49 | 50.16782 | 3.55747 | 37024 ft | 425 kts | 205° |
| 2026-05-07 10:50 | 50.13585 | 3.53603 | 37004 ft | 426 kts | 205° |
| 2026-05-07 10:50 | 50.08119 | 3.49942 | 37049 ft | 429 kts | 205° |
| 2026-05-07 10:51 | 50.02618 | 3.46267 | 37047 ft | 433 kts | 205° |
| 2026-05-07 10:51 | 49.97081 | 3.42576 | 37046 ft | 436 kts | 205° |
| 2026-05-07 10:52 | 49.91543 | 3.38894 | 37043 ft | 438 kts | 205° |
| 2026-05-07 10:52 | 49.85938 | 3.35176 | 37043 ft | 439 kts | 205° |
| 2026-05-07 10:53 | 49.80323 | 3.31463 | 37042 ft | 440 kts | 204° |
| 2026-05-07 10:53 | 49.74706 | 3.27757 | 37045 ft | 439 kts | 204° |
| 2026-05-07 10:54 | 49.69128 | 3.24087 | 37039 ft | 439 kts | 204° |
| 2026-05-07 10:54 | 49.63498 | 3.20392 | 37033 ft | 439 kts | 204° |
| 2026-05-07 10:55 | 49.57904 | 3.16728 | 37031 ft | 439 kts | 204° |
| 2026-05-07 10:55 | 49.52329 | 3.13087 | 37031 ft | 438 kts | 204° |
| 2026-05-07 10:56 | 49.49636 | 3.10960 | 36702 ft | 432 kts | 220° |
| 2026-05-07 10:56 | 49.47555 | 3.07752 | 37078 ft | 417 kts | 236° |
| 2026-05-07 10:56 | 49.44666 | 3.00075 | 37033 ft | 421 kts | 240° |
| 2026-05-07 10:57 | 49.41756 | 2.92230 | 37034 ft | 425 kts | 240° |
| 2026-05-07 10:57 | 49.38822 | 2.84350 | 37029 ft | 429 kts | 240° |
| 2026-05-07 10:58 | 49.35857 | 2.76414 | 37028 ft | 431 kts | 240° |
| 2026-05-07 10:58 | 49.32950 | 2.68374 | 37031 ft | 432 kts | 242° |
| 2026-05-07 10:59 | 49.30100 | 2.60260 | 37033 ft | 433 kts | 242° |
| 2026-05-07 10:59 | 49.27253 | 2.52182 | 37027 ft | 435 kts | 242° |
| 2026-05-07 11:00 | 49.24386 | 2.44072 | 37034 ft | 435 kts | 242° |
| 2026-05-07 11:00 | 49.21505 | 2.35954 | 37033 ft | 436 kts | 242° |
| 2026-05-07 11:01 | 49.18585 | 2.27871 | 37034 ft | 436 kts | 241° |
| 2026-05-07 11:01 | 49.15614 | 2.19811 | 37038 ft | 437 kts | 241° |
| 2026-05-07 11:02 | 49.12638 | 2.11767 | 37028 ft | 436 kts | 240° |
| 2026-05-07 11:02 | 49.09668 | 2.03759 | 37028 ft | 434 kts | 241° |
| 2026-05-07 11:03 | 49.07155 | 1.95452 | 37023 ft | 434 kts | 245° |
| 2026-05-07 11:03 | 49.04655 | 1.87116 | 37021 ft | 435 kts | 245° |
| 2026-05-07 11:04 | 49.02128 | 1.78739 | 37026 ft | 435 kts | 245° |
| 2026-05-07 11:04 | 48.99602 | 1.70400 | 37019 ft | 436 kts | 245° |
| 2026-05-07 11:05 | 48.97196 | 1.62482 | 37020 ft | 435 kts | 245° |
| 2026-05-07 11:05 | 48.94665 | 1.54180 | 37026 ft | 435 kts | 245° |
| 2026-05-07 11:06 | 48.92133 | 1.45903 | 37029 ft | 435 kts | 245° |
| 2026-05-07 11:06 | 48.89577 | 1.37574 | 37034 ft | 435 kts | 245° |
| 2026-05-07 11:07 | 48.87012 | 1.29246 | 37044 ft | 435 kts | 245° |
| 2026-05-07 11:07 | 48.84454 | 1.20973 | 37043 ft | 434 kts | 245° |
| 2026-05-07 11:08 | 48.81904 | 1.12749 | 37036 ft | 434 kts | 245° |
| 2026-05-07 11:08 | 48.79338 | 1.04498 | 37038 ft | 434 kts | 245° |
| 2026-05-07 11:09 | 48.76775 | 0.96285 | 37040 ft | 434 kts | 245° |
| 2026-05-07 11:09 | 48.74152 | 0.88076 | 37026 ft | 434 kts | 239° |
| 2026-05-07 11:10 | 48.71000 | 0.80328 | 37023 ft | 434 kts | 239° |
| 2026-05-07 11:10 | 48.67849 | 0.72549 | 37031 ft | 435 kts | 239° |
| 2026-05-07 11:11 | 48.64689 | 0.64770 | 37029 ft | 435 kts | 239° |
| 2026-05-07 11:11 | 48.61523 | 0.57002 | 37026 ft | 433 kts | 239° |
| 2026-05-07 11:12 | 48.58385 | 0.49321 | 37023 ft | 434 kts | 239° |
| 2026-05-07 11:12 | 48.55205 | 0.41560 | 37026 ft | 434 kts | 239° |
| 2026-05-07 11:13 | 48.52038 | 0.33855 | 37028 ft | 434 kts | 238° |
| 2026-05-07 11:13 | 48.48870 | 0.26167 | 37027 ft | 434 kts | 238° |
| 2026-05-07 11:14 | 48.45689 | 0.18471 | 37028 ft | 434 kts | 238° |
| 2026-05-07 11:14 | 48.42501 | 0.10778 | 37027 ft | 434 kts | 238° |
| 2026-05-07 11:15 | 48.39323 | 0.03135 | 37028 ft | 434 kts | 238° |
| 2026-05-07 11:15 | 48.36118 | -0.04517 | 37025 ft | 434 kts | 235° |
| 2026-05-07 11:16 | 48.32537 | -0.11755 | 37020 ft | 434 kts | 234° |
| 2026-05-07 11:16 | 48.28943 | -0.19009 | 37025 ft | 433 kts | 234° |
| 2026-05-07 11:17 | 48.25344 | -0.26228 | 37028 ft | 432 kts | 233° |
| 2026-05-07 11:17 | 48.21717 | -0.33340 | 37027 ft | 433 kts | 233° |
| 2026-05-07 11:18 | 48.18064 | -0.40492 | 37026 ft | 433 kts | 233° |
| 2026-05-07 11:18 | 48.14402 | -0.47643 | 37029 ft | 433 kts | 233° |
| 2026-05-07 11:19 | 48.10749 | -0.54755 | 37030 ft | 432 kts | 233° |
| 2026-05-07 11:19 | 48.07095 | -0.61848 | 37032 ft | 433 kts | 233° |
| 2026-05-07 11:20 | 48.03411 | -0.68983 | 37037 ft | 433 kts | 232° |
| 2026-05-07 11:20 | 47.99765 | -0.76028 | 37037 ft | 432 kts | 232° |
| 2026-05-07 11:21 | 47.96088 | -0.83115 | 37030 ft | 432 kts | 232° |
| 2026-05-07 11:21 | 47.92412 | -0.90179 | 37031 ft | 432 kts | 232° |
| 2026-05-07 11:22 | 47.88743 | -0.97211 | 37027 ft | 432 kts | 232° |
| 2026-05-07 11:22 | 47.85066 | -1.04241 | 37023 ft | 432 kts | 232° |
| 2026-05-07 11:23 | 47.81361 | -1.11305 | 37022 ft | 432 kts | 232° |
| 2026-05-07 11:23 | 47.77690 | -1.18290 | 37020 ft | 432 kts | 232° |
| 2026-05-07 11:24 | 47.73995 | -1.25298 | 37014 ft | 432 kts | 232° |
| 2026-05-07 11:24 | 47.70295 | -1.32301 | 37012 ft | 432 kts | 232° |
| 2026-05-07 11:25 | 47.66591 | -1.39290 | 37010 ft | 431 kts | 232° |
| 2026-05-07 11:25 | 47.62875 | -1.46288 | 37008 ft | 432 kts | 232° |
| 2026-05-07 11:26 | 47.59151 | -1.53177 | 37000 ft | 432 kts | 228° |
| 2026-05-07 11:26 | 47.55107 | -1.59775 | 36999 ft | 432 kts | 229° |
| 2026-05-07 11:27 | 47.51118 | -1.66335 | 37004 ft | 432 kts | 228° |
| 2026-05-07 11:27 | 47.47106 | -1.72920 | 37004 ft | 432 kts | 228° |
| 2026-05-07 11:28 | 47.43096 | -1.79488 | 37002 ft | 432 kts | 228° |
| 2026-05-07 11:28 | 47.39069 | -1.86065 | 36999 ft | 432 kts | 228° |
| 2026-05-07 11:29 | 47.35023 | -1.92556 | 36987 ft | 430 kts | 220° |
| 2026-05-07 11:29 | 47.30002 | -1.97270 | 37029 ft | 430 kts | 212° |
| 2026-05-07 11:30 | 47.24904 | -2.01827 | 37000 ft | 432 kts | 212° |
| 2026-05-07 11:30 | 47.19780 | -2.06400 | 36994 ft | 432 kts | 212° |
| 2026-05-07 11:31 | 47.14630 | -2.10988 | 36991 ft | 432 kts | 212° |
| 2026-05-07 11:31 | 47.09495 | -2.15549 | 36986 ft | 432 kts | 212° |
| 2026-05-07 11:32 | 47.01796 | -2.22372 | 36989 ft | 433 kts | 212° |
| 2026-05-07 11:33 | 46.96667 | -2.26906 | 36992 ft | 432 kts | 212° |
| 2026-05-07 11:33 | 46.91543 | -2.31423 | 36996 ft | 430 kts | 212° |
| 2026-05-07 11:34 | 46.86404 | -2.35943 | 36998 ft | 431 kts | 212° |
| 2026-05-07 11:34 | 46.81271 | -2.40454 | 36999 ft | 431 kts | 212° |
| 2026-05-07 11:35 | 46.76156 | -2.44940 | 37003 ft | 431 kts | 212° |
| 2026-05-07 11:35 | 46.71026 | -2.49428 | 37005 ft | 431 kts | 212° |
| 2026-05-07 11:36 | 46.65926 | -2.53880 | 37003 ft | 431 kts | 212° |
| 2026-05-07 11:36 | 46.60777 | -2.58365 | 37003 ft | 431 kts | 212° |
| 2026-05-07 11:37 | 46.55644 | -2.62826 | 37000 ft | 430 kts | 212° |
| 2026-05-07 11:37 | 46.50526 | -2.67265 | 37001 ft | 429 kts | 211° |
| 2026-05-07 11:38 | 46.45408 | -2.71692 | 37002 ft | 430 kts | 211° |
| 2026-05-07 11:38 | 46.40282 | -2.76119 | 36997 ft | 431 kts | 211° |
| 2026-05-07 11:39 | 46.35148 | -2.80540 | 36996 ft | 430 kts | 211° |
| 2026-05-07 11:39 | 46.30013 | -2.84954 | 36990 ft | 430 kts | 211° |
| 2026-05-07 11:40 | 46.25064 | -2.89701 | 37007 ft | 427 kts | 221° |
| 2026-05-07 11:40 | 46.20547 | -2.95294 | 36993 ft | 430 kts | 220° |
| 2026-05-07 11:41 | 46.15984 | -3.00866 | 36990 ft | 430 kts | 220° |
| 2026-05-07 11:41 | 46.11427 | -3.06416 | 36984 ft | 428 kts | 220° |
| 2026-05-07 11:42 | 46.06889 | -3.11928 | 37239 ft | 431 kts | 220° |
| 2026-05-07 11:42 | 46.04605 | -3.14699 | 36965 ft | 432 kts | 220° |
| 2026-05-07 11:42 | 46.02316 | -3.17471 | 36986 ft | 425 kts | 220° |
| 2026-05-07 11:42 | 46.00075 | -3.20183 | 36865 ft | 417 kts | 220° |
| 2026-05-07 11:43 | 45.97890 | -3.22823 | 37017 ft | 417 kts | 220° |
| 2026-05-07 11:43 | 45.93414 | -3.28225 | 36979 ft | 422 kts | 220° |
| 2026-05-07 11:44 | 45.88927 | -3.33627 | 36981 ft | 425 kts | 220° |
| 2026-05-07 11:44 | 45.84401 | -3.39067 | 36983 ft | 428 kts | 220° |
| 2026-05-07 11:45 | 45.79836 | -3.44539 | 36983 ft | 429 kts | 220° |
| 2026-05-07 11:45 | 45.75272 | -3.50001 | 36982 ft | 430 kts | 220° |
| 2026-05-07 11:46 | 45.70688 | -3.55471 | 36976 ft | 430 kts | 220° |
| 2026-05-07 11:46 | 45.66105 | -3.60930 | 36976 ft | 430 kts | 220° |
| 2026-05-07 11:47 | 45.61503 | -3.66399 | 36977 ft | 430 kts | 219° |
| 2026-05-07 11:47 | 45.56921 | -3.71833 | 36980 ft | 430 kts | 219° |
| 2026-05-07 11:48 | 45.52334 | -3.77260 | 36979 ft | 430 kts | 219° |
| 2026-05-07 11:48 | 45.47713 | -3.82714 | 36971 ft | 430 kts | 219° |
| 2026-05-07 11:49 | 45.43141 | -3.88101 | 36974 ft | 430 kts | 219° |
| 2026-05-07 11:49 | 45.38536 | -3.93513 | 36973 ft | 430 kts | 219° |
| 2026-05-07 11:50 | 45.33943 | -3.98899 | 36973 ft | 430 kts | 219° |
| 2026-05-07 11:50 | 45.29328 | -4.04301 | 36965 ft | 431 kts | 219° |
| 2026-05-07 11:51 | 45.24710 | -4.09695 | 36971 ft | 431 kts | 219° |
| 2026-05-07 11:51 | 45.20110 | -4.15056 | 36966 ft | 431 kts | 219° |
| 2026-05-07 11:52 | 45.15463 | -4.20458 | 36972 ft | 431 kts | 219° |
| 2026-05-07 11:52 | 45.10834 | -4.25828 | 36970 ft | 432 kts | 219° |
| 2026-05-07 11:53 | 45.06205 | -4.31187 | 37132 ft | 433 kts | 219° |
| 2026-05-07 11:53 | 45.03889 | -4.33864 | 36749 ft | 430 kts | 219° |
| 2026-05-07 11:53 | 45.01594 | -4.36513 | 37193 ft | 424 kts | 219° |
| 2026-05-07 11:53 | 44.99272 | -4.39192 | 36975 ft | 432 kts | 219° |
| 2026-05-07 11:54 | 44.97454 | -4.41286 | 36942 ft | 432 kts | 219° |
| 2026-05-07 11:54 | 44.92849 | -4.46584 | 36952 ft | 431 kts | 219° |
| 2026-05-07 11:55 | 44.88187 | -4.51937 | 36950 ft | 430 kts | 219° |
| 2026-05-07 11:55 | 44.83573 | -4.57222 | 36947 ft | 431 kts | 219° |
| 2026-05-07 11:56 | 44.78928 | -4.62531 | 36943 ft | 431 kts | 220° |
| 2026-05-07 11:56 | 44.74262 | -4.67854 | 36947 ft | 431 kts | 219° |
| 2026-05-07 11:57 | 44.69636 | -4.73119 | 36940 ft | 431 kts | 219° |
| 2026-05-07 11:57 | 44.64993 | -4.78393 | 36937 ft | 431 kts | 219° |
| 2026-05-07 11:58 | 44.60317 | -4.83693 | 36931 ft | 431 kts | 219° |
| 2026-05-07 11:58 | 44.55682 | -4.88935 | 36931 ft | 432 kts | 219° |
| 2026-05-07 11:59 | 44.50999 | -4.94222 | 36929 ft | 432 kts | 219° |
| 2026-05-07 11:59 | 44.48626 | -4.96707 | 36917 ft | 420 kts | 215° |
| 2026-05-07 11:59 | 44.46296 | -4.99024 | 36915 ft | 407 kts | 216° |
| 2026-05-07 12:00 | 44.41737 | -5.03600 | 36927 ft | 403 kts | 216° |
| 2026-05-07 12:00 | 44.37181 | -5.08170 | 36921 ft | 409 kts | 216° |
| 2026-05-07 12:01 | 44.32544 | -5.12815 | 36917 ft | 412 kts | 216° |
| 2026-05-07 12:01 | 44.27895 | -5.17462 | 36912 ft | 409 kts | 216° |
| 2026-05-07 12:02 | 44.23282 | -5.22062 | 36907 ft | 408 kts | 216° |
| 2026-05-07 12:02 | 44.18650 | -5.26675 | 36909 ft | 410 kts | 217° |
| 2026-05-07 12:03 | 44.14036 | -5.31260 | 36921 ft | 409 kts | 216° |
| 2026-05-07 12:03 | 44.09429 | -5.35828 | 36922 ft | 408 kts | 217° |
| 2026-05-07 12:04 | 44.04788 | -5.40421 | 36922 ft | 409 kts | 217° |
| 2026-05-07 12:04 | 44.00174 | -5.44980 | 36923 ft | 410 kts | 217° |
| 2026-05-07 12:05 | 43.95525 | -5.49563 | 36919 ft | 409 kts | 217° |
| 2026-05-07 12:05 | 43.90910 | -5.54105 | 36919 ft | 410 kts | 217° |
| 2026-05-07 12:06 | 43.86263 | -5.58667 | 36912 ft | 411 kts | 217° |
| 2026-05-07 12:06 | 43.81607 | -5.63231 | 36906 ft | 411 kts | 217° |
| 2026-05-07 12:07 | 43.76929 | -5.67807 | 36915 ft | 412 kts | 216° |
| 2026-05-07 12:07 | 43.72254 | -5.72372 | 36908 ft | 414 kts | 216° |
| 2026-05-07 12:08 | 43.67540 | -5.76966 | 36907 ft | 414 kts | 216° |
| 2026-05-07 12:08 | 43.62841 | -5.81536 | 36904 ft | 415 kts | 216° |
| 2026-05-07 12:09 | 43.58130 | -5.86109 | 36896 ft | 415 kts | 216° |
| 2026-05-07 12:09 | 43.53405 | -5.90684 | 36888 ft | 416 kts | 217° |
| 2026-05-07 12:10 | 43.48711 | -5.95224 | 36891 ft | 416 kts | 217° |
| 2026-05-07 12:10 | 43.43977 | -5.99790 | 36890 ft | 416 kts | 217° |
| 2026-05-07 12:11 | 43.39215 | -6.04379 | 36890 ft | 416 kts | 217° |
| 2026-05-07 12:11 | 43.34486 | -6.08922 | 36893 ft | 417 kts | 217° |
| 2026-05-07 12:12 | 43.29756 | -6.13459 | 36900 ft | 417 kts | 217° |
| 2026-05-07 12:12 | 43.24996 | -6.18019 | 36897 ft | 417 kts | 217° |
| 2026-05-07 12:13 | 43.20258 | -6.22546 | 36906 ft | 418 kts | 217° |
| 2026-05-07 12:13 | 43.15488 | -6.27097 | 36910 ft | 419 kts | 217° |
| 2026-05-07 12:14 | 43.10696 | -6.31655 | 36913 ft | 419 kts | 217° |
| 2026-05-07 12:14 | 43.05927 | -6.36189 | 36917 ft | 419 kts | 217° |
| 2026-05-07 12:15 | 43.01140 | -6.40727 | 36909 ft | 419 kts | 217° |
| 2026-05-07 12:15 | 42.96378 | -6.45234 | 36903 ft | 420 kts | 218° |
| 2026-05-07 12:16 | 42.91553 | -6.49793 | 36901 ft | 420 kts | 218° |
| 2026-05-07 12:16 | 42.86757 | -6.54314 | 36900 ft | 421 kts | 218° |
| 2026-05-07 12:17 | 42.81964 | -6.58823 | 36901 ft | 422 kts | 218° |
| 2026-05-07 12:17 | 42.77130 | -6.63363 | 36899 ft | 422 kts | 218° |
| 2026-05-07 12:18 | 42.72301 | -6.67888 | 36824 ft | 425 kts | 217° |
| 2026-05-07 12:18 | 42.69853 | -6.70181 | 36594 ft | 426 kts | 218° |
| 2026-05-07 12:18 | 42.67402 | -6.72474 | 36388 ft | 426 kts | 218° |
| 2026-05-07 12:18 | 42.64991 | -6.74725 | 36173 ft | 424 kts | 218° |
| 2026-05-07 12:19 | 42.62569 | -6.76985 | 35954 ft | 424 kts | 218° |
| 2026-05-07 12:19 | 42.60115 | -6.79275 | 35735 ft | 426 kts | 218° |
| 2026-05-07 12:19 | 42.57689 | -6.81533 | 35526 ft | 428 kts | 218° |
| 2026-05-07 12:19 | 42.55217 | -6.83835 | 35316 ft | 429 kts | 218° |
| 2026-05-07 12:20 | 42.52774 | -6.86105 | 35101 ft | 431 kts | 218° |
| 2026-05-07 12:20 | 42.50296 | -6.88406 | 34880 ft | 432 kts | 218° |
| 2026-05-07 12:20 | 42.47800 | -6.90722 | 34671 ft | 433 kts | 218° |
| 2026-05-07 12:20 | 42.45343 | -6.92997 | 34463 ft | 434 kts | 218° |
| 2026-05-07 12:21 | 42.42830 | -6.95328 | 34255 ft | 436 kts | 218° |
| 2026-05-07 12:21 | 42.40304 | -6.97667 | 33708 ft | 440 kts | 218° |
| 2026-05-07 12:21 | 42.37815 | -6.99964 | 33143 ft | 437 kts | 218° |
| 2026-05-07 12:21 | 42.35314 | -7.02275 | 32589 ft | 432 kts | 218° |
| 2026-05-07 12:22 | 42.32866 | -7.04529 | 32023 ft | 428 kts | 218° |
| 2026-05-07 12:22 | 42.30430 | -7.06776 | 31462 ft | 425 kts | 218° |
| 2026-05-07 12:22 | 42.28082 | -7.09176 | 30915 ft | 414 kts | 229° |
| 2026-05-07 12:22 | 42.26302 | -7.12121 | 30367 ft | 402 kts | 243° |
| 2026-05-07 12:23 | 42.24863 | -7.15301 | 29806 ft | 397 kts | 242° |
| 2026-05-07 12:23 | 42.23371 | -7.18542 | 29278 ft | 415 kts | 242° |
| 2026-05-07 12:23 | 42.21809 | -7.21940 | 28766 ft | 436 kts | 242° |
| 2026-05-07 12:23 | 42.20224 | -7.25369 | 28128 ft | 433 kts | 241° |
| 2026-05-07 12:24 | 42.18644 | -7.28793 | 27495 ft | 427 kts | 241° |
| 2026-05-07 12:24 | 42.17096 | -7.32140 | 26913 ft | 420 kts | 241° |
| 2026-05-07 12:24 | 42.15573 | -7.35433 | 26350 ft | 414 kts | 240° |
| 2026-05-07 12:24 | 42.14061 | -7.38698 | 25743 ft | 406 kts | 240° |
| 2026-05-07 12:25 | 42.12564 | -7.41926 | 25199 ft | 405 kts | 240° |
| 2026-05-07 12:25 | 42.11095 | -7.45085 | 24736 ft | 393 kts | 240° |
| 2026-05-07 12:25 | 42.09668 | -7.48159 | 24180 ft | 389 kts | 240° |
| 2026-05-07 12:25 | 42.08237 | -7.51235 | 23650 ft | 384 kts | 240° |
| 2026-05-07 12:26 | 42.06828 | -7.54258 | 23132 ft | 379 kts | 240° |
| 2026-05-07 12:26 | 42.05438 | -7.57243 | 22620 ft | 375 kts | 239° |
| 2026-05-07 12:26 | 42.04063 | -7.60187 | 22137 ft | 374 kts | 239° |
| 2026-05-07 12:26 | 42.02688 | -7.63133 | 21640 ft | 373 kts | 239° |
| 2026-05-07 12:27 | 42.01310 | -7.66084 | 21148 ft | 372 kts | 238° |
| 2026-05-07 12:27 | 41.99935 | -7.69015 | 20656 ft | 371 kts | 238° |
| 2026-05-07 12:27 | 41.98567 | -7.71939 | 20163 ft | 370 kts | 238° |
| 2026-05-07 12:27 | 41.97212 | -7.74833 | 19678 ft | 370 kts | 238° |
| 2026-05-07 12:28 | 41.95840 | -7.77752 | 19184 ft | 369 kts | 238° |
| 2026-05-07 12:28 | 41.94487 | -7.80632 | 18615 ft | 361 kts | 238° |
| 2026-05-07 12:28 | 41.93168 | -7.83437 | 18211 ft | 355 kts | 238° |
| 2026-05-07 12:28 | 41.91856 | -7.86226 | 17747 ft | 354 kts | 237° |
| 2026-05-07 12:29 | 41.90541 | -7.89014 | 17276 ft | 354 kts | 237° |
| 2026-05-07 12:29 | 41.89231 | -7.91792 | 16809 ft | 353 kts | 237° |
| 2026-05-07 12:29 | 41.87910 | -7.94594 | 16289 ft | 354 kts | 237° |
| 2026-05-07 12:29 | 41.86618 | -7.97331 | 15879 ft | 348 kts | 237° |
| 2026-05-07 12:30 | 41.85332 | -8.00050 | 15420 ft | 343 kts | 237° |
| 2026-05-07 12:30 | 41.84441 | -8.01934 | 15093 ft | 340 kts | 237° |
| 2026-05-07 12:30 | 41.83189 | -8.04577 | 14644 ft | 336 kts | 237° |
| 2026-05-07 12:30 | 41.81944 | -8.07204 | 14205 ft | 333 kts | 237° |
| 2026-05-07 12:31 | 41.80763 | -8.09813 | 13766 ft | 332 kts | 239° |
| 2026-05-07 12:31 | 41.79592 | -8.12494 | 13305 ft | 334 kts | 239° |
| 2026-05-07 12:31 | 41.78414 | -8.15192 | 12857 ft | 336 kts | 238° |
| 2026-05-07 12:31 | 41.77232 | -8.17891 | 12428 ft | 338 kts | 238° |
| 2026-05-07 12:32 | 41.76053 | -8.20579 | 11957 ft | 334 kts | 238° |
| 2026-05-07 12:32 | 41.74895 | -8.23222 | 11515 ft | 323 kts | 238° |
| 2026-05-07 12:32 | 41.73801 | -8.25803 | 11099 ft | 320 kts | 239° |
| 2026-05-07 12:32 | 41.72721 | -8.28365 | 10633 ft | 312 kts | 239° |
| 2026-05-07 12:33 | 41.70715 | -8.33133 | 10237 ft | 272 kts | 238° |
| 2026-05-07 12:33 | 41.69807 | -8.35286 | 10193 ft | 258 kts | 238° |
| 2026-05-07 12:33 | 41.68955 | -8.37300 | 10108 ft | 245 kts | 238° |
| 2026-05-07 12:34 | 41.68138 | -8.39234 | 10039 ft | 233 kts | 238° |
| 2026-05-07 12:34 | 41.67361 | -8.41076 | 9949 ft | 220 kts | 238° |
| 2026-05-07 12:34 | 41.67048 | -8.41816 | 9932 ft | 222 kts | 237° |
| 2026-05-07 12:34 | 41.66269 | -8.43650 | 9992 ft | 238 kts | 238° |
| 2026-05-07 12:35 | 41.65479 | -8.45521 | 9877 ft | 228 kts | 238° |
| 2026-05-07 12:35 | 41.64688 | -8.47384 | 9549 ft | 239 kts | 238° |
| 2026-05-07 12:35 | 41.63847 | -8.49363 | 9249 ft | 248 kts | 238° |
| 2026-05-07 12:35 | 41.62999 | -8.51366 | 8847 ft | 245 kts | 238° |
| 2026-05-07 12:36 | 41.62172 | -8.53315 | 8551 ft | 242 kts | 238° |
| 2026-05-07 12:36 | 41.61343 | -8.55267 | 8168 ft | 240 kts | 238° |
| 2026-05-07 12:36 | 41.60538 | -8.57163 | 7848 ft | 233 kts | 238° |
| 2026-05-07 12:36 | 41.59739 | -8.59030 | 7568 ft | 230 kts | 234° |
| 2026-05-07 12:37 | 41.58843 | -8.60864 | 7262 ft | 241 kts | 234° |
| 2026-05-07 12:37 | 41.57949 | -8.62712 | 6952 ft | 234 kts | 234° |
| 2026-05-07 12:37 | 41.57072 | -8.64523 | 6633 ft | 232 kts | 234° |
| 2026-05-07 12:37 | 41.56200 | -8.66318 | 6318 ft | 226 kts | 233° |
| 2026-05-07 12:38 | 41.55359 | -8.68044 | 6017 ft | 219 kts | 233° |
| 2026-05-07 12:38 | 41.54543 | -8.69721 | 5729 ft | 211 kts | 234° |
| 2026-05-07 12:38 | 41.53750 | -8.71350 | 5471 ft | 209 kts | 234° |
| 2026-05-07 12:38 | 41.52971 | -8.72953 | 5215 ft | 207 kts | 234° |
| 2026-05-07 12:39 | 41.51988 | -8.74313 | 4932 ft | 199 kts | 213° |
| 2026-05-07 12:39 | 41.50742 | -8.75052 | 4715 ft | 199 kts | 185° |
| 2026-05-07 12:39 | 41.49379 | -8.74877 | 4511 ft | 202 kts | 162° |
| 2026-05-07 12:39 | 41.48031 | -8.74365 | 4237 ft | 201 kts | 166° |
| 2026-05-07 12:40 | 41.46657 | -8.73931 | 3964 ft | 201 kts | 168° |
| 2026-05-07 12:40 | 41.45300 | -8.73532 | 3702 ft | 201 kts | 168° |
| 2026-05-07 12:40 | 41.43940 | -8.73151 | 3441 ft | 201 kts | 169° |
| 2026-05-07 12:40 | 41.42562 | -8.72777 | 3195 ft | 200 kts | 169° |
| 2026-05-07 12:41 | 41.41190 | -8.72413 | 2930 ft | 201 kts | 169° |
| 2026-05-07 12:41 | 41.39828 | -8.72055 | 2670 ft | 199 kts | 170° |
| 2026-05-07 12:41 | 41.38485 | -8.71700 | 2424 ft | 191 kts | 169° |
| 2026-05-07 12:41 | 41.37240 | -8.71373 | 2204 ft | 176 kts | 169° |
| 2026-05-07 12:42 | 41.36107 | -8.71076 | 1984 ft | 156 kts | 170° |
| 2026-05-07 12:42 | 41.35048 | -8.70800 | 1790 ft | 157 kts | 170° |
| 2026-05-07 12:42 | 41.33967 | -8.70521 | 1612 ft | 161 kts | 170° |
| 2026-05-07 12:42 | 41.32879 | -8.70231 | 1388 ft | 154 kts | 170° |
| 2026-05-07 12:43 | 41.31835 | -8.69960 | 1200 ft | 153 kts | 169° |
| 2026-05-07 12:43 | 41.30793 | -8.69689 | 1018 ft | 153 kts | 169° |
| 2026-05-07 12:43 | 41.29743 | -8.69412 | 834 ft | 152 kts | 169° |
| 2026-05-07 12:43 | 41.28701 | -8.69140 | 643 ft | 149 kts | 169° |
| 2026-05-07 12:44 | 41.27689 | -8.68875 | 476 ft | 149 kts | 170° |
| 2026-05-07 12:44 | 41.26674 | -8.68609 | 296 ft | 145 kts | 169° |
| 2026-05-07 12:44 | 41.25699 | -8.68353 | 170 ft | 136 kts | 169° |
| 2026-05-07 12:44 | 41.24896 | -8.68152 | 186 ft | 93 kts | 169° |
| 2026-05-07 12:45 | 41.24421 | -8.68024 | 199 ft | 46 kts | 168° |
| 2026-05-07 12:45 | 41.24260 | -8.67982 | 203 ft | 0 kts | 169° |
| 2026-05-07 12:45 | 41.24213 | -8.67970 | 204 ft | 13 kts | 169° |
| 2026-05-07 12:45 | 41.24105 | -8.67944 | 207 ft | 23 kts | 170° |
| 2026-05-07 12:46 | 41.23906 | -8.67878 | 210 ft | 13 kts | 127° |
| 2026-05-07 12:46 | 41.23899 | -8.67776 | 213 ft | 8 kts | 85° |
| 2026-05-07 12:46 | 41.23907 | -8.67721 | 215 ft | 4 kts | 78° |
| 2026-05-07 12:46 | 41.23913 | -8.67672 | 216 ft | 5 kts | 81° |
| 2026-05-07 12:47 | 41.23920 | -8.67621 | 217 ft | 5 kts | 78° |
| 2026-05-07 12:47 | 41.23928 | -8.67568 | 220 ft | 5 kts | 82° |
| 2026-05-07 12:47 | 41.23919 | -8.67525 | 222 ft | 4 kts | 129° |
| 2026-05-07 12:47 | 41.23878 | -8.67493 | 224 ft | 9 kts | 166° |
| 2026-05-07 12:48 | 41.23822 | -8.67476 | 225 ft | 5 kts | 147° |
| 2026-05-07 12:48 | 41.23825 | -8.67427 | 228 ft | 3 kts | 81° |
| 2026-05-07 12:48 | 41.23826 | -8.67416 | 229 ft | 1 kts | 81° |
| 2026-05-07 12:48 | 41.23829 | -8.67396 | 230 ft | 3 kts | 79° |
| 2026-05-07 12:49 | 41.23830 | -8.67387 | 231 ft | 0 kts | 79° |